createdAt,value
2022-08-15T00:00:30.169Z,69.14
2022-08-15T00:03:00.970Z,69.45
2022-08-15T00:05:36.466Z,69.44
2022-08-15T00:08:48.687Z,69.20
2022-08-15T00:11:01.302Z,68.83
2022-08-15T00:13:41.233Z,69.25
2022-08-15T00:16:19.200Z,69.18
2022-08-15T00:18:50.017Z,69.21
2022-08-15T00:21:22.604Z,69.19
2022-08-15T00:23:53.175Z,69.29
2022-08-15T00:26:54.173Z,69.39
2022-08-15T00:29:14.833Z,69.29
2022-08-15T00:31:43.976Z,69.54
2022-08-15T00:34:38.710Z,69.80
2022-08-15T00:37:08.497Z,70.03
2022-08-15T00:39:39.008Z,70.25
2022-08-15T00:42:14.593Z,70.25
2022-08-15T00:44:52.515Z,70.61
2022-08-15T00:47:39.053Z,71.04
2022-08-15T00:50:33.794Z,71.45
2022-08-15T00:53:01.379Z,71.66
2022-08-15T00:55:32.406Z,72.06
2022-08-15T00:58:03.791Z,71.96
2022-08-15T01:00:46.173Z,71.99
2022-08-15T01:03:20.075Z,71.57
2022-08-15T01:05:52.108Z,71.52
2022-08-15T01:08:30.540Z,71.31
2022-08-15T01:11:14.279Z,71.52
2022-08-15T01:14:03.590Z,71.42
2022-08-15T01:16:36.933Z,71.33
2022-08-15T01:19:18.247Z,71.22
2022-08-15T01:22:08.158Z,71.17
2022-08-15T01:25:17.172Z,71.11
2022-08-15T01:27:46.838Z,71.21
2022-08-15T01:31:01.700Z,71.23
2022-08-15T01:33:17.191Z,71.05
2022-08-15T01:35:52.952Z,70.96
2022-08-15T01:38:38.407Z,70.88
2022-08-15T01:41:36.820Z,71.13
2022-08-15T01:44:25.652Z,71.19
2022-08-15T01:47:12.063Z,71.18
2022-08-15T01:49:59.185Z,71.03
2022-08-15T01:52:59.343Z,71.25
2022-08-15T01:55:44.410Z,71.25
2022-08-15T01:58:26.668Z,71.43
2022-08-15T02:01:07.738Z,71.37
2022-08-15T02:03:49.296Z,71.35
2022-08-15T02:06:35.234Z,71.51
2022-08-15T02:09:37.355Z,71.54
2022-08-15T02:12:04.189Z,71.79
2022-08-15T02:14:50.579Z,71.91
2022-08-15T02:17:20.189Z,71.75
2022-08-15T02:19:52.269Z,71.76
2022-08-15T02:22:26.896Z,71.91
2022-08-15T02:24:59.537Z,71.87
2022-08-15T02:27:33.719Z,72.00
2022-08-15T02:30:10.948Z,72.41
2022-08-15T02:32:42.222Z,72.24
2022-08-15T02:35:16.668Z,72.36
2022-08-15T02:37:58.072Z,72.55
2022-08-15T02:40:44.145Z,72.60
2022-08-15T02:43:19.688Z,72.46
2022-08-15T02:45:56.370Z,72.65
2022-08-15T02:48:57.142Z,72.46
2022-08-15T02:51:46.715Z,72.68
2022-08-15T02:54:37.757Z,73.07
2022-08-15T02:57:17.479Z,73.35
2022-08-15T02:59:47.749Z,73.58
2022-08-15T03:02:30.650Z,73.68
2022-08-15T03:05:05.299Z,73.72
2022-08-15T03:07:39.316Z,73.80
2022-08-15T03:10:08.667Z,73.98
2022-08-15T03:12:55.086Z,73.83
2022-08-15T03:15:27.238Z,73.73
2022-08-15T03:17:58.798Z,73.82
2022-08-15T03:20:31.044Z,74.04
2022-08-15T03:23:02.329Z,74.26
2022-08-15T03:25:55.227Z,74.28
2022-08-15T03:28:30.533Z,74.30
2022-08-15T03:31:06.278Z,74.29
2022-08-15T03:33:56.810Z,74.25
2022-08-15T03:36:28.086Z,74.37
2022-08-15T03:38:59.803Z,74.44
2022-08-15T03:41:30.345Z,74.10
2022-08-15T03:43:59.676Z,74.15
2022-08-15T03:46:29.709Z,73.90
2022-08-15T03:49:10.159Z,73.75
2022-08-15T03:51:43.525Z,73.78
2022-08-15T03:54:24.766Z,73.55
2022-08-15T03:56:56.048Z,73.68
2022-08-15T03:59:24.666Z,73.28
2022-08-15T04:02:00.734Z,73.24
2022-08-15T04:04:33.789Z,73.22
2022-08-15T04:07:04.998Z,73.17
2022-08-15T04:09:43.922Z,73.21
2022-08-15T04:12:25.156Z,73.22
2022-08-15T04:14:57.620Z,73.09
2022-08-15T04:17:57.808Z,73.05
2022-08-15T04:20:31.524Z,73.13
2022-08-15T04:23:08.337Z,73.20
2022-08-15T04:25:43.244Z,73.35
2022-08-15T04:28:53.821Z,73.41
2022-08-15T04:31:23.329Z,73.00
2022-08-15T04:34:22.387Z,72.86
2022-08-15T04:36:48.246Z,72.64
2022-08-15T04:39:21.660Z,72.56
2022-08-15T04:42:03.879Z,72.73
2022-08-15T04:44:33.516Z,72.39
2022-08-15T04:47:02.526Z,72.49
2022-08-15T04:49:32.005Z,72.11
2022-08-15T04:52:11.138Z,71.90
2022-08-15T04:54:57.949Z,71.68
2022-08-15T04:57:33.737Z,71.43
2022-08-15T05:00:05.587Z,71.25
2022-08-15T05:03:04.574Z,71.18
2022-08-15T05:05:37.578Z,70.71
2022-08-15T05:08:14.189Z,70.52
2022-08-15T05:10:47.208Z,70.31
2022-08-15T05:13:22.517Z,70.23
2022-08-15T05:15:54.685Z,70.32
2022-08-15T05:18:31.695Z,70.13
2022-08-15T05:21:01.105Z,69.75
2022-08-15T05:23:42.981Z,69.56
2022-08-15T05:26:20.828Z,69.32
2022-08-15T05:29:09.257Z,68.60
2022-08-15T05:31:38.586Z,68.61
2022-08-15T05:34:12.468Z,68.40
2022-08-15T05:36:52.276Z,67.79
2022-08-15T05:39:35.166Z,67.63
2022-08-15T05:42:31.335Z,67.19
2022-08-15T05:45:30.644Z,66.97
2022-08-15T05:48:20.690Z,66.46
2022-08-15T05:50:59.991Z,66.12
2022-08-15T05:53:39.617Z,65.62
2022-08-15T05:56:21.779Z,65.22
2022-08-15T05:58:58.502Z,65.05
2022-08-15T06:01:32.882Z,64.68
2022-08-15T06:04:30.701Z,64.42
2022-08-15T06:07:12.630Z,64.17
2022-08-15T06:09:47.990Z,63.77
2022-08-15T06:12:35.314Z,63.42
2022-08-15T06:15:17.869Z,63.17
2022-08-15T06:18:05.329Z,63.10
2022-08-15T06:20:44.860Z,62.79
2022-08-15T06:23:37.995Z,62.22
2022-08-15T06:26:20.247Z,61.72
2022-08-15T06:29:05.663Z,61.27
2022-08-15T06:31:40.315Z,60.84
2022-08-15T06:34:54.631Z,60.47
2022-08-15T06:37:30.329Z,60.35
2022-08-15T06:40:27.829Z,60.41
2022-08-15T06:42:59.375Z,59.97
2022-08-15T06:45:58.858Z,59.44
2022-08-15T06:48:59.832Z,59.46
2022-08-15T06:51:44.897Z,59.39
2022-08-15T06:54:35.069Z,59.37
2022-08-15T06:57:20.281Z,59.35
2022-08-15T07:00:04.781Z,59.28
2022-08-15T07:02:58.903Z,59.66
2022-08-15T07:05:33.742Z,59.65
2022-08-15T07:08:12.752Z,59.26
2022-08-15T07:10:49.978Z,59.33
2022-08-15T07:13:45.248Z,58.68
2022-08-15T07:16:33.673Z,58.07
2022-08-15T07:19:05.843Z,57.72
2022-08-15T07:21:52.863Z,57.64
2022-08-15T07:24:35.824Z,56.48
2022-08-15T07:27:15.786Z,56.46
2022-08-15T07:29:55.803Z,56.16
2022-08-15T07:32:34.753Z,55.49
2022-08-15T07:35:26.846Z,54.71
2022-08-15T07:38:25.806Z,54.21
2022-08-15T07:41:18.352Z,54.15
2022-08-15T07:43:51.746Z,53.62
2022-08-15T07:46:26.888Z,53.46
2022-08-15T07:49:03.956Z,53.51
2022-08-15T07:51:46.422Z,53.47
2022-08-15T07:54:35.317Z,53.01
2022-08-15T08:00:45.902Z,52.45
2022-08-15T08:03:33.819Z,51.99
2022-08-15T08:06:34.844Z,51.77
2022-08-15T08:09:12.284Z,51.77
2022-08-15T08:11:55.695Z,51.48
2022-08-15T08:14:41.865Z,51.29
2022-08-15T08:17:20.557Z,50.98
2022-08-15T08:20:13.065Z,50.43
2022-08-15T08:22:53.374Z,50.35
2022-08-15T08:26:03.519Z,49.87
2022-08-15T08:28:32.082Z,49.64
2022-08-15T08:31:09.952Z,48.96
2022-08-15T08:33:49.563Z,48.70
2022-08-15T08:36:37.476Z,48.87
2022-08-15T08:39:33.073Z,48.72
2022-08-15T08:42:20.154Z,48.52
2022-08-15T08:45:05.873Z,48.24
2022-08-15T08:48:05.574Z,48.35
2022-08-15T08:50:44.869Z,47.52
2022-08-15T08:53:31.167Z,47.81
2022-08-15T08:56:31.241Z,47.42
2022-08-15T08:59:07.276Z,47.37
2022-08-15T09:01:41.279Z,46.88
2022-08-15T09:04:18.654Z,46.51
2022-08-15T09:06:51.391Z,46.64
2022-08-15T09:09:31.068Z,46.58
2022-08-15T09:12:04.833Z,45.96
2022-08-15T09:14:59.124Z,45.47
2022-08-15T09:17:35.727Z,45.31
2022-08-15T09:20:18.721Z,44.95
2022-08-15T09:22:53.765Z,44.42
2022-08-15T09:25:29.873Z,43.75
2022-08-15T09:28:08.357Z,43.59
2022-08-15T09:34:07.408Z,41.91
2022-08-15T09:37:06.847Z,42.06
2022-08-15T09:40:57.862Z,41.88
2022-08-15T09:43:17.137Z,41.50
2022-08-15T09:46:07.868Z,40.83
2022-08-15T09:49:07.660Z,40.48
2022-08-15T09:51:59.206Z,39.91
2022-08-15T09:54:51.487Z,40.55
2022-08-15T09:57:36.641Z,40.00
2022-08-15T10:00:26.174Z,39.51
2022-08-15T10:03:04.189Z,39.28
2022-08-15T10:05:46.450Z,39.48
2022-08-15T10:08:29.505Z,39.29
2022-08-15T10:11:15.582Z,39.26
2022-08-15T10:13:50.501Z,39.11
2022-08-15T10:16:43.428Z,39.20
2022-08-15T10:19:34.136Z,38.11
2022-08-15T10:22:45.434Z,38.27
2022-08-15T10:25:20.075Z,38.14
2022-08-15T10:27:59.372Z,37.92
2022-08-15T10:30:44.692Z,38.23
2022-08-15T10:33:35.161Z,37.48
2022-08-15T10:36:30.438Z,36.84
2022-08-15T10:39:21.426Z,36.92
2022-08-15T10:42:19.620Z,36.63
2022-08-15T10:45:02.837Z,36.88
2022-08-15T10:48:02.043Z,36.82
2022-08-15T10:50:50.664Z,35.93
2022-08-15T10:53:51.301Z,35.26
2022-08-15T10:57:04.873Z,35.01
2022-08-15T10:59:20.971Z,35.13
2022-08-15T11:01:51.972Z,34.62
2022-08-15T11:04:48.891Z,34.80
2022-08-15T11:07:20.617Z,34.20
2022-08-15T11:09:57.746Z,33.45
2022-08-15T11:12:30.215Z,32.17
2022-08-15T11:15:22.134Z,32.93
2022-08-15T11:18:21.269Z,33.61
2022-08-15T11:20:57.088Z,33.13
2022-08-15T11:23:38.020Z,33.53
2022-08-15T11:26:19.027Z,33.88
2022-08-15T11:29:16.197Z,32.85
2022-08-15T11:31:48.020Z,33.17
2022-08-15T11:34:42.310Z,32.94
2022-08-15T11:37:18.011Z,33.41
2022-08-15T11:39:54.289Z,33.11
2022-08-15T11:42:31.776Z,32.86
2022-08-15T11:45:02.627Z,32.69
2022-08-15T11:47:36.387Z,32.09
2022-08-15T11:50:10.836Z,32.53
2022-08-15T11:52:51.647Z,32.74
2022-08-15T11:55:28.929Z,31.46
2022-08-15T11:58:03.798Z,30.63
2022-08-15T12:00:46.585Z,30.13
2022-08-15T12:04:41.003Z,29.94
2022-08-15T12:06:33.641Z,30.02
2022-08-15T12:09:16.294Z,29.76
2022-08-15T12:11:52.274Z,30.05
2022-08-15T12:14:28.525Z,30.38
2022-08-15T12:17:04.069Z,30.64
2022-08-15T12:20:26.727Z,30.38
2022-08-15T12:22:53.791Z,29.91
2022-08-15T12:25:51.496Z,30.25
2022-08-15T12:28:33.088Z,30.42
2022-08-15T12:31:22.386Z,30.09
2022-08-15T12:34:03.409Z,29.85
2022-08-15T12:37:05.375Z,30.28
2022-08-15T12:39:40.194Z,30.04
2022-08-15T12:42:55.616Z,29.98
2022-08-15T12:45:13.701Z,30.28
2022-08-15T12:48:05.596Z,30.11
2022-08-15T12:50:36.880Z,29.88
2022-08-15T12:53:08.644Z,29.75
2022-08-15T12:55:40.698Z,29.78
2022-08-15T12:58:12.122Z,29.50
2022-08-15T13:01:03.553Z,29.85
2022-08-15T13:03:59.732Z,29.81
2022-08-15T13:06:34.593Z,30.60
2022-08-15T13:09:06.327Z,31.40
2022-08-15T13:11:38.116Z,32.21
2022-08-15T13:14:06.787Z,32.82
2022-08-15T13:17:06.250Z,32.99
2022-08-15T13:19:29.039Z,32.91
2022-08-15T13:22:30.985Z,32.54
2022-08-15T13:25:01.481Z,32.15
2022-08-15T13:27:33.433Z,32.10
2022-08-15T13:30:06.419Z,31.99
2022-08-15T13:32:39.376Z,31.75
2022-08-15T13:35:29.967Z,31.48
2022-08-15T13:38:04.832Z,31.71
2022-08-15T13:40:35.861Z,32.32
2022-08-15T13:43:12.447Z,32.22
2022-08-15T13:45:57.206Z,32.67
2022-08-15T13:48:36.557Z,32.22
2022-08-15T13:51:14.502Z,32.38
2022-08-15T13:56:34.641Z,31.92
2022-08-15T13:59:03.861Z,32.27
2022-08-15T14:01:34.495Z,32.06
2022-08-15T14:04:11.002Z,31.40
2022-08-15T14:06:54.937Z,31.50
2022-08-15T14:10:02.016Z,31.79
2022-08-15T14:12:18.414Z,31.17
2022-08-15T14:15:04.998Z,31.74
2022-08-15T14:20:26.183Z,31.13
2022-08-15T14:23:00.117Z,31.46
2022-08-15T14:27:04.658Z,31.12
2022-08-15T14:28:20.160Z,31.39
2022-08-15T14:30:55.254Z,31.27
2022-08-15T14:33:58.055Z,31.30
2022-08-15T14:36:29.161Z,31.36
2022-08-15T14:39:01.410Z,31.50
2022-08-15T14:41:36.543Z,32.00
2022-08-15T14:44:06.881Z,32.18
2022-08-15T14:46:37.870Z,32.00
2022-08-15T14:49:08.330Z,31.39
2022-08-15T14:52:16.239Z,31.28
2022-08-15T14:54:43.661Z,32.01
2022-08-15T14:57:25.710Z,31.71
2022-08-15T15:00:06.706Z,32.22
2022-08-15T15:02:37.881Z,32.56
2022-08-15T15:05:10.810Z,33.16
2022-08-15T15:07:59.441Z,32.83
2022-08-15T15:10:33.277Z,32.68
2022-08-15T15:13:06.136Z,33.17
2022-08-15T15:15:42.588Z,32.51
2022-08-15T15:18:39.187Z,32.78
2022-08-15T15:21:07.517Z,32.71
2022-08-15T15:23:40.669Z,32.31
2022-08-15T15:26:13.768Z,32.20
2022-08-15T15:28:48.711Z,32.66
2022-08-15T15:31:28.622Z,32.79
2022-08-15T15:33:57.862Z,32.66
2022-08-15T15:36:36.330Z,32.46
2022-08-15T15:39:10.161Z,32.65
2022-08-15T15:41:46.352Z,32.57
2022-08-15T15:44:21.018Z,32.19
2022-08-15T15:46:52.891Z,32.02
2022-08-15T15:49:37.470Z,32.23
2022-08-15T15:52:13.175Z,31.59
2022-08-15T15:54:52.315Z,31.95
2022-08-15T15:57:25.718Z,31.90
2022-08-15T16:00:28.221Z,32.03
2022-08-15T16:03:04.811Z,31.88
2022-08-15T16:07:00.834Z,31.29
2022-08-15T16:08:35.662Z,31.66
2022-08-15T16:11:18.667Z,31.23
2022-08-15T16:14:00.071Z,31.10
2022-08-15T16:16:38.577Z,30.88
2022-08-15T16:19:18.969Z,31.01
2022-08-15T16:22:00.881Z,30.43
2022-08-15T16:24:39.706Z,30.50
2022-08-15T16:27:16.792Z,30.46
2022-08-15T16:29:57.745Z,30.72
2022-08-15T16:32:33.230Z,30.42
2022-08-15T16:35:13.334Z,30.49
2022-08-15T16:37:48.906Z,29.95
2022-08-15T16:40:24.098Z,30.31
2022-08-15T16:43:00.566Z,30.44
2022-08-15T16:45:38.811Z,30.67
2022-08-15T16:48:24.052Z,31.15
2022-08-15T16:51:03.349Z,31.37
2022-08-15T16:53:57.545Z,31.09
2022-08-15T16:56:38.164Z,31.42
2022-08-15T16:59:17.283Z,31.82
2022-08-15T17:03:04.193Z,32.29
2022-08-15T17:05:12.953Z,32.64
2022-08-15T17:07:52.131Z,32.47
2022-08-15T17:10:36.034Z,32.78
2022-08-15T17:13:21.002Z,32.99
2022-08-15T17:15:58.113Z,33.52
2022-08-15T17:18:44.592Z,34.19
2022-08-15T17:21:26.136Z,35.02
2022-08-15T17:24:54.745Z,35.83
2022-08-15T17:27:31.016Z,36.78
2022-08-15T17:30:53.886Z,36.94
2022-08-15T17:33:03.403Z,37.43
2022-08-15T17:35:35.207Z,37.30
2022-08-15T17:38:06.480Z,37.67
2022-08-15T17:40:40.889Z,38.17
2022-08-15T17:43:23.947Z,38.87
2022-08-15T17:45:55.507Z,40.20
2022-08-15T17:48:31.273Z,41.42
2022-08-15T17:51:11.542Z,41.79
2022-08-15T17:53:52.164Z,41.87
2022-08-15T17:56:29.360Z,41.55
2022-08-15T17:59:04.832Z,40.91
2022-08-15T18:01:35.061Z,40.98
2022-08-15T18:04:04.934Z,40.81
2022-08-15T18:06:36.045Z,40.97
2022-08-15T18:09:14.944Z,41.59
2022-08-15T18:12:01.869Z,42.54
2022-08-15T18:14:38.708Z,43.49
2022-08-15T18:17:25.440Z,44.28
2022-08-15T18:20:28.085Z,44.38
2022-08-15T18:23:08.715Z,44.51
2022-08-15T18:25:47.704Z,44.93
2022-08-15T18:28:28.045Z,45.16
2022-08-15T18:31:00.235Z,45.15
2022-08-15T18:34:03.306Z,44.86
2022-08-15T18:36:33.681Z,44.86
2022-08-15T18:39:18.779Z,45.41
2022-08-15T18:41:49.227Z,46.36
2022-08-15T18:44:25.559Z,46.61
2022-08-15T18:47:04.190Z,47.11
2022-08-15T18:49:36.466Z,47.88
2022-08-15T18:52:32.228Z,47.78
2022-08-15T18:55:07.999Z,48.35
2022-08-15T18:57:52.752Z,48.61
2022-08-15T19:00:33.054Z,48.98
2022-08-15T19:03:05.911Z,49.67
2022-08-15T19:05:43.763Z,49.20
2022-08-15T19:08:37.605Z,49.75
2022-08-15T19:11:16.788Z,49.66
2022-08-15T19:13:57.194Z,49.40
2022-08-15T19:16:34.970Z,48.98
2022-08-15T19:19:20.563Z,49.23
2022-08-15T19:21:54.557Z,49.45
2022-08-15T19:24:29.085Z,50.42
2022-08-15T19:27:13.976Z,51.00
2022-08-15T19:30:04.127Z,51.23
2022-08-15T19:32:52.196Z,51.83
2022-08-15T19:35:27.765Z,52.07
2022-08-15T19:38:13.877Z,51.76
2022-08-15T19:40:55.960Z,51.87
2022-08-15T19:43:43.778Z,51.42
2022-08-15T19:46:35.490Z,51.33
2022-08-15T19:49:34.323Z,51.58
2022-08-15T19:52:10.788Z,51.39
2022-08-15T19:55:39.080Z,49.95
2022-08-15T19:58:28.444Z,49.31
2022-08-15T20:00:57.587Z,49.54
2022-08-15T20:03:36.328Z,49.90
2022-08-15T20:06:21.170Z,49.92
2022-08-15T20:08:59.358Z,49.55
2022-08-15T20:11:35.538Z,49.79
2022-08-15T20:14:46.744Z,50.06
2022-08-15T20:17:17.718Z,48.94
2022-08-15T20:20:02.089Z,49.26
2022-08-15T20:22:45.234Z,49.91
2022-08-15T20:25:24.506Z,49.84
2022-08-15T20:27:56.777Z,50.41
2022-08-15T20:30:37.360Z,50.46
2022-08-15T20:33:17.005Z,50.42
2022-08-15T20:35:54.037Z,50.36
2022-08-15T20:38:29.909Z,50.74
2022-08-15T20:41:04.756Z,50.00
2022-08-15T20:43:48.727Z,49.15
2022-08-15T20:46:34.454Z,50.01
2022-08-15T20:49:20.719Z,50.19
2022-08-15T20:52:00.954Z,51.06
2022-08-15T20:54:48.780Z,50.93
2022-08-15T20:57:31.725Z,50.98
2022-08-15T21:01:11.456Z,51.22
2022-08-15T21:03:14.085Z,51.64
2022-08-15T21:06:18.445Z,50.95
2022-08-15T21:09:01.800Z,50.38
2022-08-15T21:11:50.750Z,51.26
2022-08-15T21:15:10.116Z,51.76
2022-08-15T21:17:41.349Z,51.92
2022-08-15T21:20:33.369Z,52.14
2022-08-15T21:23:23.929Z,52.52
2022-08-15T21:25:56.210Z,52.53
2022-08-15T21:28:38.062Z,52.65
2022-08-15T21:31:31.271Z,53.11
2022-08-15T21:34:33.453Z,53.82
2022-08-15T21:37:33.467Z,53.83
2022-08-15T21:40:40.318Z,53.98
2022-08-15T21:43:44.539Z,54.29
2022-08-15T21:46:51.575Z,54.72
2022-08-15T21:49:45.928Z,54.71
2022-08-15T21:52:41.917Z,54.57
2022-08-15T21:55:39.995Z,54.45
2022-08-15T21:58:32.988Z,54.39
2022-08-15T22:01:20.077Z,54.90
2022-08-15T22:04:02.419Z,54.65
2022-08-15T22:06:35.639Z,54.67
2022-08-15T22:13:03.089Z,54.57
2022-08-15T22:15:35.516Z,54.64
2022-08-15T22:18:27.901Z,54.48
2022-08-15T22:21:03.108Z,54.50
2022-08-15T22:23:42.058Z,54.73
2022-08-15T22:26:35.965Z,55.05
2022-08-15T22:29:10.731Z,55.45
2022-08-15T22:32:11.112Z,56.06
2022-08-15T22:34:35.130Z,56.10
2022-08-15T22:37:06.659Z,56.31
2022-08-15T22:39:44.863Z,56.35
2022-08-15T22:42:17.753Z,56.61
2022-08-15T22:44:48.322Z,56.88
2022-08-15T22:47:20.891Z,57.08
2022-08-15T22:49:56.291Z,57.50
2022-08-15T22:52:28.657Z,57.79
2022-08-15T22:55:00.237Z,57.63
2022-08-15T22:57:57.705Z,57.96
2022-08-15T23:00:21.336Z,58.11
2022-08-15T23:03:00.767Z,58.56
2022-08-15T23:05:36.046Z,58.65
2022-08-15T23:08:14.224Z,58.35
2022-08-15T23:10:51.407Z,57.96
2022-08-15T23:13:28.673Z,57.70
2022-08-15T23:16:03.499Z,57.26
2022-08-15T23:18:43.347Z,57.04
2022-08-15T23:21:16.345Z,56.91
2022-08-15T23:23:53.417Z,56.84
2022-08-15T23:26:31.105Z,56.75
2022-08-15T23:29:03.461Z,56.99
2022-08-15T23:31:37.064Z,56.82
2022-08-15T23:34:21.686Z,57.01
2022-08-15T23:37:06.855Z,57.51
2022-08-15T23:39:46.803Z,57.47
2022-08-15T23:42:28.276Z,57.54
2022-08-15T23:44:59.309Z,57.29
2022-08-15T23:47:28.025Z,57.53
2022-08-15T23:49:59.757Z,57.74
2022-08-15T23:52:39.477Z,58.07
2022-08-15T23:55:11.666Z,57.85
2022-08-15T23:57:43.158Z,57.60
